createdAt,value
2018-03-14T00:00:50.954Z,1001.27
2018-03-14T00:01:50.870Z,1001.29
2018-03-14T00:02:50.794Z,1001.25
2018-03-14T00:03:50.711Z,1001.28
2018-03-14T00:04:50.621Z,1001.27
2018-03-14T00:05:50.545Z,1001.29
2018-03-14T00:06:50.455Z,1001.29
2018-03-14T00:07:50.380Z,1001.35
2018-03-14T00:08:50.296Z,1001.36
2018-03-14T00:09:50.221Z,1001.34
2018-03-14T00:10:50.133Z,1001.34
2018-03-14T00:11:50.042Z,1001.38
2018-03-14T00:12:49.981Z,1001.44
2018-03-14T00:13:49.884Z,1001.41
2018-03-14T00:14:49.809Z,1001.43
2018-03-14T00:15:49.721Z,1001.43
2018-03-14T00:16:49.634Z,1001.47
2018-03-14T00:17:49.561Z,1001.49
2018-03-14T00:18:49.482Z,1001.47
2018-03-14T00:19:49.393Z,1001.49
2018-03-14T00:20:49.307Z,1001.52
2018-03-14T00:21:49.233Z,1001.48
2018-03-14T00:22:49.147Z,1001.48
2018-03-14T00:23:49.064Z,1001.49
2018-03-14T00:24:48.986Z,1001.50
2018-03-14T00:25:48.897Z,1001.56
2018-03-14T00:26:48.819Z,1001.57
2018-03-14T00:27:48.736Z,1001.58
2018-03-14T00:28:48.657Z,1001.58
2018-03-14T00:29:48.570Z,1001.58
2018-03-14T00:30:48.483Z,1001.59
2018-03-14T00:31:48.412Z,1001.57
2018-03-14T00:32:48.321Z,1001.61
2018-03-14T00:33:48.244Z,1001.62
2018-03-14T00:34:48.158Z,1001.67
2018-03-14T00:35:48.089Z,1001.63
2018-03-14T00:36:47.997Z,1001.63
2018-03-14T00:37:47.910Z,1001.67
2018-03-14T00:38:47.838Z,1001.66
2018-03-14T00:39:47.746Z,1001.70
2018-03-14T00:40:47.671Z,1001.66
2018-03-14T00:41:47.587Z,1001.68
2018-03-14T00:42:47.501Z,1001.70
2018-03-14T00:43:47.425Z,1001.71
2018-03-14T00:44:47.337Z,1001.70
2018-03-14T00:45:47.259Z,1001.73
2018-03-14T00:46:47.171Z,1001.74
2018-03-14T00:47:47.086Z,1001.73
2018-03-14T00:48:47.010Z,1001.72
2018-03-14T00:49:46.921Z,1001.72
2018-03-14T00:50:46.848Z,1001.74
2018-03-14T00:51:46.762Z,1001.71
2018-03-14T00:52:46.686Z,1001.74
2018-03-14T00:53:46.598Z,1001.75
2018-03-14T00:54:46.512Z,1001.72
2018-03-14T00:55:46.435Z,1001.71
2018-03-14T00:56:46.347Z,1001.73
2018-03-14T00:57:46.277Z,1001.74
2018-03-14T00:58:46.190Z,1001.74
2018-03-14T00:59:46.107Z,1001.75
2018-03-14T01:00:46.027Z,1001.76
2018-03-14T01:01:45.935Z,1001.74
2018-03-14T01:02:45.861Z,1001.77
2018-03-14T01:03:45.776Z,1001.76
2018-03-14T01:04:45.700Z,1001.77
2018-03-14T01:05:45.619Z,1001.82
2018-03-14T01:06:45.525Z,1001.81
2018-03-14T01:07:45.465Z,1001.80
2018-03-14T01:08:45.365Z,1001.81
2018-03-14T01:09:45.292Z,1001.81
2018-03-14T01:10:45.199Z,1001.83
2018-03-14T01:11:45.127Z,1001.83
2018-03-14T01:12:45.043Z,1001.87
2018-03-14T01:13:44.951Z,1001.85
2018-03-14T01:14:44.878Z,1001.86
2018-03-14T01:15:44.788Z,1001.85
2018-03-14T01:16:44.713Z,1001.84
2018-03-14T01:17:44.626Z,1001.84
2018-03-14T01:18:44.550Z,1001.92
2018-03-14T01:19:44.467Z,1001.92
2018-03-14T01:20:44.392Z,1001.90
2018-03-14T01:21:44.304Z,1001.93
2018-03-14T01:22:44.217Z,1001.89
2018-03-14T01:23:44.142Z,1001.90
2018-03-14T01:24:44.051Z,1001.89
2018-03-14T01:25:43.968Z,1001.90
2018-03-14T01:26:43.907Z,1001.88
2018-03-14T01:27:43.804Z,1001.91
2018-03-14T01:28:43.729Z,1001.89
2018-03-14T01:29:43.644Z,1001.92
2018-03-14T01:30:43.567Z,1001.92
2018-03-14T01:31:43.481Z,1001.92
2018-03-14T01:32:43.394Z,1001.92
2018-03-14T01:33:43.315Z,1001.88
2018-03-14T01:34:43.227Z,1001.90
2018-03-14T01:35:43.151Z,1001.92
2018-03-14T01:36:43.064Z,1001.92
2018-03-14T01:37:42.978Z,1001.93
2018-03-14T01:38:42.905Z,1001.95
2018-03-14T01:39:42.818Z,1001.98
2018-03-14T01:40:42.741Z,1001.92
2018-03-14T01:41:42.658Z,1001.96
2018-03-14T01:42:42.579Z,1001.93
2018-03-14T01:43:42.491Z,1001.96
2018-03-14T01:44:42.406Z,1002.00
2018-03-14T01:45:42.332Z,1001.96
2018-03-14T01:46:42.244Z,1001.98
2018-03-14T01:47:42.166Z,1001.97
2018-03-14T01:48:42.078Z,1002.02
2018-03-14T01:49:42.003Z,1002.03
2018-03-14T01:50:41.919Z,1002.04
2018-03-14T01:51:41.831Z,1002.04
2018-03-14T01:52:41.758Z,1002.02
2018-03-14T01:53:41.670Z,1002.03
2018-03-14T01:54:41.596Z,1002.05
2018-03-14T01:55:41.504Z,1002.05
2018-03-14T01:56:41.420Z,1002.10
2018-03-14T01:57:41.346Z,1002.06
2018-03-14T01:58:41.268Z,1002.07
2018-03-14T01:59:41.183Z,1002.05
2018-03-14T02:00:41.096Z,1002.09
2018-03-14T02:01:41.011Z,1002.08
2018-03-14T02:02:40.930Z,1002.10
2018-03-14T02:03:40.843Z,1002.08
2018-03-14T02:04:40.769Z,1002.11
2018-03-14T02:05:40.679Z,1002.15
2018-03-14T02:06:40.605Z,1002.15
2018-03-14T02:07:40.519Z,1002.11
2018-03-14T02:08:40.448Z,1002.17
2018-03-14T02:09:40.359Z,1002.16
2018-03-14T02:10:40.277Z,1002.18
2018-03-14T02:11:40.197Z,1002.24
2018-03-14T02:12:40.109Z,1002.18
2018-03-14T02:13:40.020Z,1002.22
2018-03-14T02:14:39.948Z,1002.22
2018-03-14T02:15:39.857Z,1002.23
2018-03-14T02:16:39.785Z,1002.27
2018-03-14T02:17:39.696Z,1002.27
2018-03-14T02:18:39.612Z,1002.30
2018-03-14T02:19:39.536Z,1002.28
2018-03-14T02:20:39.445Z,1002.26
2018-03-14T02:21:39.375Z,1002.31
2018-03-14T02:22:39.281Z,1002.30
2018-03-14T02:23:39.200Z,1002.37
2018-03-14T02:24:39.121Z,1002.28
2018-03-14T02:25:39.036Z,1002.37
2018-03-14T02:26:38.970Z,1002.36
2018-03-14T02:27:38.871Z,1002.37
2018-03-14T02:28:38.787Z,1002.39
2018-03-14T02:29:38.712Z,1002.38
2018-03-14T02:30:38.624Z,1002.40
2018-03-14T02:31:38.545Z,1002.42
2018-03-14T02:32:38.462Z,1002.42
2018-03-14T02:33:38.383Z,1002.43
2018-03-14T02:34:38.299Z,1002.47
2018-03-14T02:35:38.210Z,1002.49
2018-03-14T02:36:38.151Z,1002.49
2018-03-14T02:37:38.053Z,1002.55
2018-03-14T02:38:37.976Z,1002.53
2018-03-14T02:39:37.887Z,1002.52
2018-03-14T02:40:37.798Z,1002.52
2018-03-14T02:41:37.722Z,1002.52
2018-03-14T02:42:37.638Z,1002.56
2018-03-14T02:43:37.563Z,1002.52
2018-03-14T02:44:37.473Z,1002.53
2018-03-14T02:45:37.394Z,1002.54
2018-03-14T02:46:37.314Z,1002.51
2018-03-14T02:47:37.226Z,1002.57
2018-03-14T02:48:37.136Z,1002.58
2018-03-14T02:49:37.063Z,1002.55
2018-03-14T02:50:36.973Z,1002.58
2018-03-14T02:51:36.901Z,1002.58
2018-03-14T02:52:36.814Z,1002.57
2018-03-14T02:53:36.739Z,1002.62
2018-03-14T02:54:36.650Z,1002.61
2018-03-14T02:55:36.560Z,1002.63
2018-03-14T02:56:36.490Z,1002.64
2018-03-14T02:57:36.402Z,1002.64
2018-03-14T02:58:36.328Z,1002.69
2018-03-14T02:59:36.240Z,1002.68
2018-03-14T03:00:36.148Z,1002.70
2018-03-14T03:01:36.074Z,1002.68
2018-03-14T03:02:35.990Z,1002.70
2018-03-14T03:03:35.901Z,1002.71
2018-03-14T03:04:35.834Z,1002.75
2018-03-14T03:05:35.739Z,1002.75
2018-03-14T03:06:35.661Z,1002.75
2018-03-14T03:07:35.580Z,1002.77
2018-03-14T03:08:35.488Z,1002.74
2018-03-14T03:09:35.429Z,1002.80
2018-03-14T03:10:35.326Z,1002.76
2018-03-14T03:11:35.250Z,1002.77
2018-03-14T03:12:35.167Z,1002.76
2018-03-14T03:13:35.090Z,1002.78
2018-03-14T03:14:35.000Z,1002.76
2018-03-14T03:15:34.912Z,1002.78
2018-03-14T03:16:34.838Z,1002.76
2018-03-14T03:17:34.755Z,1002.78
2018-03-14T03:18:34.676Z,1002.81
2018-03-14T03:19:34.592Z,1002.83
2018-03-14T03:20:34.500Z,1002.83
2018-03-14T03:21:34.426Z,1002.83
2018-03-14T03:22:34.340Z,1002.87
2018-03-14T03:23:34.267Z,1002.84
2018-03-14T03:24:34.180Z,1002.81
2018-03-14T03:25:34.097Z,1002.82
2018-03-14T03:26:34.016Z,1002.84
2018-03-14T03:27:33.931Z,1002.84
2018-03-14T03:28:33.844Z,1002.87
2018-03-14T03:29:33.770Z,1002.86
2018-03-14T03:30:33.678Z,1002.86
2018-03-14T03:31:33.603Z,1002.86
2018-03-14T03:32:33.518Z,1002.89
2018-03-14T03:33:33.457Z,1002.91
2018-03-14T03:34:33.353Z,1002.95
2018-03-14T03:35:33.269Z,1002.91
2018-03-14T03:36:33.190Z,1002.92
2018-03-14T03:37:33.106Z,1002.94
2018-03-14T03:38:33.029Z,1002.98
2018-03-14T03:39:32.957Z,1002.97
2018-03-14T03:40:32.853Z,1002.99
2018-03-14T03:41:32.778Z,1002.97
2018-03-14T03:42:32.695Z,1002.99
2018-03-14T03:43:32.617Z,1002.99
2018-03-14T03:44:32.532Z,1002.99
2018-03-14T03:45:32.458Z,1003.04
2018-03-14T03:46:32.366Z,1003.00
2018-03-14T03:47:32.282Z,1003.03
2018-03-14T03:48:32.206Z,1003.06
2018-03-14T03:49:32.120Z,1003.02
2018-03-14T03:50:32.034Z,1003.02
2018-03-14T03:51:31.960Z,1003.04
2018-03-14T03:52:31.867Z,1003.04
2018-03-14T03:53:31.792Z,1003.10
2018-03-14T03:54:31.705Z,1003.10
2018-03-14T03:55:31.620Z,1003.12
2018-03-14T03:56:31.546Z,1003.16
2018-03-14T03:57:31.461Z,1003.16
2018-03-14T03:58:31.381Z,1003.18
2018-03-14T03:59:31.306Z,1003.18
2018-03-14T04:00:31.206Z,1003.21
2018-03-14T04:01:31.134Z,1003.20
2018-03-14T04:02:31.043Z,1003.23
2018-03-14T04:03:30.968Z,1003.24
2018-03-14T04:04:30.881Z,1003.23
2018-03-14T04:05:30.797Z,1003.28
2018-03-14T04:06:30.718Z,1003.28
2018-03-14T04:07:30.633Z,1003.30
2018-03-14T04:08:30.560Z,1003.30
2018-03-14T04:09:30.468Z,1003.31
2018-03-14T04:10:30.405Z,1003.26
2018-03-14T04:11:30.311Z,1003.31
2018-03-14T04:12:30.219Z,1003.32
2018-03-14T04:13:30.147Z,1003.31
2018-03-14T04:14:30.057Z,1003.30
2018-03-14T04:15:29.982Z,1003.27
2018-03-14T04:16:29.896Z,1003.33
2018-03-14T04:17:29.807Z,1003.33
2018-03-14T04:18:29.740Z,1003.34
2018-03-14T04:19:29.646Z,1003.30
2018-03-14T04:20:29.574Z,1003.33
2018-03-14T04:21:29.494Z,1003.36
2018-03-14T04:22:29.408Z,1003.30
2018-03-14T04:23:29.324Z,1003.33
2018-03-14T04:24:29.235Z,1003.33
2018-03-14T04:25:29.162Z,1003.35
2018-03-14T04:26:29.070Z,1003.34
2018-03-14T04:27:28.987Z,1003.39
2018-03-14T04:28:28.908Z,1003.39
2018-03-14T04:29:28.822Z,1003.43
2018-03-14T04:30:28.749Z,1003.42
2018-03-14T04:31:28.699Z,1003.42
2018-03-14T04:32:28.576Z,1003.43
2018-03-14T04:33:28.514Z,1003.42
2018-03-14T04:34:28.413Z,1003.45
2018-03-14T04:35:28.339Z,1003.45
2018-03-14T04:36:28.251Z,1003.45
2018-03-14T04:37:28.172Z,1003.43
2018-03-14T04:38:28.085Z,1003.46
2018-03-14T04:39:28.003Z,1003.52
2018-03-14T04:40:27.922Z,1003.50
2018-03-14T04:41:27.838Z,1003.48
2018-03-14T04:42:27.765Z,1003.50
2018-03-14T04:43:27.674Z,1003.53
2018-03-14T04:44:27.588Z,1003.51
2018-03-14T04:45:27.510Z,1003.52
2018-03-14T04:46:27.424Z,1003.52
2018-03-14T04:47:27.349Z,1003.52
2018-03-14T04:48:27.262Z,1003.57
2018-03-14T04:49:27.178Z,1003.59
2018-03-14T04:50:27.111Z,1003.58
2018-03-14T04:51:27.014Z,1003.63
2018-03-14T04:52:26.941Z,1003.60
2018-03-14T04:53:26.854Z,1003.60
2018-03-14T04:54:26.773Z,1003.62
2018-03-14T04:55:26.687Z,1003.61
2018-03-14T04:56:26.631Z,1003.62
2018-03-14T04:57:26.528Z,1003.62
2018-03-14T04:58:26.446Z,1003.59
2018-03-14T04:59:26.350Z,1003.62
2018-03-14T05:00:26.275Z,1003.68
2018-03-14T05:01:26.187Z,1003.68
2018-03-14T05:02:26.113Z,1003.69
2018-03-14T05:03:26.026Z,1003.68
2018-03-14T05:04:25.953Z,1003.70
2018-03-14T05:05:25.864Z,1003.66
2018-03-14T05:06:25.776Z,1003.64
2018-03-14T05:07:25.752Z,1003.66
2018-03-14T05:08:25.613Z,1003.70
2018-03-14T05:09:25.540Z,1003.69
2018-03-14T05:10:25.455Z,1003.70
2018-03-14T05:11:25.365Z,1003.68
2018-03-14T05:12:25.293Z,1003.73
2018-03-14T05:13:25.204Z,1003.73
2018-03-14T05:14:25.130Z,1003.72
2018-03-14T05:15:25.039Z,1003.70
2018-03-14T05:16:24.965Z,1003.77
2018-03-14T05:17:24.881Z,1003.76
2018-03-14T05:18:24.793Z,1003.78
2018-03-14T05:19:24.715Z,1003.82
2018-03-14T05:20:24.630Z,1003.84
2018-03-14T05:21:24.555Z,1003.85
2018-03-14T05:22:24.468Z,1003.81
2018-03-14T05:23:24.378Z,1003.80
2018-03-14T05:24:24.302Z,1003.82
2018-03-14T05:25:24.219Z,1003.79
2018-03-14T05:26:24.149Z,1003.85
2018-03-14T05:27:24.053Z,1003.87
2018-03-14T05:28:23.975Z,1003.86
2018-03-14T05:29:23.898Z,1003.88
2018-03-14T05:30:23.803Z,1003.88
2018-03-14T05:31:23.743Z,1003.90
2018-03-14T05:32:23.642Z,1003.94
2018-03-14T05:33:23.566Z,1003.94
2018-03-14T05:34:23.478Z,1003.94
2018-03-14T05:35:23.391Z,1003.95
2018-03-14T05:36:23.321Z,1003.95
2018-03-14T05:37:23.230Z,1004.00
2018-03-14T05:38:23.156Z,1003.98
2018-03-14T05:39:23.067Z,1003.95
2018-03-14T05:40:22.979Z,1003.98
2018-03-14T05:41:22.904Z,1004.05
2018-03-14T05:42:22.831Z,1004.02
2018-03-14T05:43:22.747Z,1004.02
2018-03-14T05:44:22.656Z,1004.05
2018-03-14T05:45:22.569Z,1004.00
2018-03-14T05:46:22.496Z,1004.08
2018-03-14T05:47:22.408Z,1004.04
2018-03-14T05:48:22.334Z,1004.07
2018-03-14T05:49:22.247Z,1004.06
2018-03-14T05:50:22.167Z,1004.10
2018-03-14T05:51:22.084Z,1004.10
2018-03-14T05:52:21.998Z,1004.06
2018-03-14T05:53:21.923Z,1004.10
2018-03-14T05:54:21.831Z,1004.08
2018-03-14T05:55:21.773Z,1004.12
2018-03-14T05:56:21.668Z,1004.10
2018-03-14T05:57:21.586Z,1004.12
2018-03-14T05:58:21.510Z,1004.13
2018-03-14T05:59:21.431Z,1004.12
2018-03-14T06:00:21.350Z,1004.11
2018-03-14T06:01:21.270Z,1004.15
2018-03-14T06:02:21.170Z,1004.17
2018-03-14T06:03:21.094Z,1004.17
2018-03-14T06:04:21.007Z,1004.15
2018-03-14T06:05:20.974Z,1004.19
2018-03-14T06:06:20.847Z,1004.18
2018-03-14T06:07:20.769Z,1004.18
2018-03-14T06:08:20.685Z,1004.25
2018-03-14T06:09:20.600Z,1004.21
2018-03-14T06:10:20.524Z,1004.25
2018-03-14T06:11:20.437Z,1004.25
2018-03-14T06:12:20.373Z,1004.27
2018-03-14T06:13:20.271Z,1004.26
2018-03-14T06:14:20.185Z,1004.27
2018-03-14T06:15:20.112Z,1004.25
2018-03-14T06:16:20.026Z,1004.29
2018-03-14T06:17:19.945Z,1004.29
2018-03-14T06:18:19.862Z,1004.30
2018-03-14T06:19:19.792Z,1004.33
2018-03-14T06:20:19.697Z,1004.34
2018-03-14T06:21:19.612Z,1004.35
2018-03-14T06:22:19.534Z,1004.39
2018-03-14T06:23:19.447Z,1004.35
2018-03-14T06:24:19.373Z,1004.42
2018-03-14T06:25:19.288Z,1004.41
2018-03-14T06:26:19.214Z,1004.45
2018-03-14T06:27:19.125Z,1004.45
2018-03-14T06:28:19.035Z,1004.45
2018-03-14T06:29:18.959Z,1004.49
2018-03-14T06:30:18.874Z,1004.48
2018-03-14T06:31:18.803Z,1004.46
2018-03-14T06:32:18.710Z,1004.51
2018-03-14T06:33:18.624Z,1004.52
2018-03-14T06:34:18.549Z,1004.53
2018-03-14T06:35:18.464Z,1004.58
2018-03-14T06:36:18.386Z,1004.57
2018-03-14T06:37:18.298Z,1004.53
2018-03-14T06:38:18.223Z,1004.58
2018-03-14T06:39:18.137Z,1004.61
2018-03-14T06:40:18.053Z,1004.63
2018-03-14T06:41:17.979Z,1004.60
2018-03-14T06:42:17.886Z,1004.67
2018-03-14T06:43:17.813Z,1004.67
2018-03-14T06:44:17.728Z,1004.65
2018-03-14T06:45:17.650Z,1004.67
2018-03-14T06:46:17.564Z,1004.69
2018-03-14T06:47:17.478Z,1004.67
2018-03-14T06:48:17.399Z,1004.75
2018-03-14T06:49:17.312Z,1004.74
2018-03-14T06:50:17.242Z,1004.81
2018-03-14T06:51:17.154Z,1004.76
2018-03-14T06:52:17.080Z,1004.76
2018-03-14T06:53:16.995Z,1004.79
2018-03-14T06:54:16.912Z,1004.82
2018-03-14T06:55:16.829Z,1004.84
2018-03-14T06:56:16.742Z,1004.86
2018-03-14T06:57:16.664Z,1004.86
2018-03-14T06:58:16.580Z,1004.83
2018-03-14T06:59:16.501Z,1004.87
2018-03-14T07:00:16.414Z,1004.88
2018-03-14T07:01:16.342Z,1004.84
2018-03-14T07:02:16.252Z,1004.82
2018-03-14T07:03:16.165Z,1004.84
2018-03-14T07:04:16.089Z,1004.88
2018-03-14T07:05:16.002Z,1004.86
2018-03-14T07:06:15.926Z,1004.87
2018-03-14T07:07:15.852Z,1004.86
2018-03-14T07:08:15.763Z,1004.86
2018-03-14T07:09:15.680Z,1004.91
2018-03-14T07:10:15.602Z,1004.89
2018-03-14T07:11:15.515Z,1004.91
2018-03-14T07:12:15.454Z,1004.94
2018-03-14T07:13:15.353Z,1004.93
2018-03-14T07:14:15.281Z,1004.94
2018-03-14T07:15:15.190Z,1004.92
2018-03-14T07:16:15.104Z,1004.94
2018-03-14T07:17:15.029Z,1004.95
2018-03-14T07:18:14.941Z,1004.96
2018-03-14T07:19:14.869Z,1004.98
2018-03-14T07:20:14.785Z,1004.94
2018-03-14T07:21:14.708Z,1004.98
2018-03-14T07:22:14.619Z,1005.00
2018-03-14T07:23:14.546Z,1005.00
2018-03-14T07:24:14.458Z,1004.96
2018-03-14T07:25:14.384Z,1005.01
2018-03-14T07:26:14.291Z,1005.05
2018-03-14T07:27:14.217Z,1005.04
2018-03-14T07:28:14.129Z,1005.03
2018-03-14T07:29:14.058Z,1005.06
2018-03-14T07:30:13.979Z,1005.08
2018-03-14T07:31:13.897Z,1005.05
2018-03-14T07:32:13.805Z,1005.11
2018-03-14T07:33:13.719Z,1005.08
2018-03-14T07:34:13.643Z,1005.10
2018-03-14T07:35:13.555Z,1005.11
2018-03-14T07:36:13.484Z,1005.14
2018-03-14T07:37:13.406Z,1005.12
2018-03-14T07:38:13.319Z,1005.16
2018-03-14T07:39:13.235Z,1005.14
2018-03-14T07:40:13.165Z,1005.15
2018-03-14T07:41:13.067Z,1005.20
2018-03-14T07:42:12.993Z,1005.23
2018-03-14T07:43:12.905Z,1005.21
2018-03-14T07:44:12.835Z,1005.26
2018-03-14T07:45:12.747Z,1005.24
2018-03-14T07:46:12.672Z,1005.25
2018-03-14T07:47:12.587Z,1005.27
2018-03-14T07:48:12.507Z,1005.28
2018-03-14T07:49:12.432Z,1005.25
2018-03-14T07:50:12.345Z,1005.30
2018-03-14T07:51:12.261Z,1005.31
2018-03-14T07:52:12.182Z,1005.32
2018-03-14T07:53:12.096Z,1005.30
2018-03-14T07:54:12.038Z,1005.33
2018-03-14T07:55:11.932Z,1005.32
2018-03-14T07:56:11.850Z,1005.35
2018-03-14T07:57:11.786Z,1005.33
2018-03-14T07:58:11.730Z,1005.28
2018-03-14T07:59:11.656Z,1005.31
2018-03-14T08:00:11.533Z,1005.31
2018-03-14T08:01:11.493Z,1005.29
2018-03-14T08:02:11.360Z,1005.34
2018-03-14T08:03:11.283Z,1005.33
2018-03-14T08:04:11.200Z,1005.34
2018-03-14T08:05:11.120Z,1005.31
2018-03-14T08:06:11.037Z,1005.37
2018-03-14T08:07:10.962Z,1005.39
2018-03-14T08:08:10.875Z,1005.36
2018-03-14T08:09:10.802Z,1005.41
2018-03-14T08:10:10.712Z,1005.42
2018-03-14T08:11:10.633Z,1005.43
2018-03-14T08:12:10.548Z,1005.44
2018-03-14T08:13:10.472Z,1005.49
2018-03-14T08:14:10.389Z,1005.47
2018-03-14T08:15:10.313Z,1005.49
2018-03-14T08:16:10.226Z,1005.45
2018-03-14T08:17:10.163Z,1005.45
2018-03-14T08:18:10.063Z,1005.45
2018-03-14T08:19:09.972Z,1005.50
2018-03-14T08:20:09.901Z,1005.49
2018-03-14T08:21:09.825Z,1005.43
2018-03-14T08:22:09.736Z,1005.49
2018-03-14T08:23:09.661Z,1005.46
2018-03-14T08:24:09.577Z,1005.46
2018-03-14T08:25:09.489Z,1005.47
2018-03-14T08:26:09.410Z,1005.45
2018-03-14T08:27:09.323Z,1005.45
2018-03-14T08:28:09.261Z,1005.42
2018-03-14T08:29:09.166Z,1005.48
2018-03-14T08:30:09.087Z,1005.46
2018-03-14T08:31:09.003Z,1005.46
2018-03-14T08:32:08.936Z,1005.52
2018-03-14T08:33:08.840Z,1005.47
2018-03-14T08:34:08.766Z,1005.50
2018-03-14T08:35:08.680Z,1005.51
2018-03-14T08:36:08.587Z,1005.51
2018-03-14T08:37:08.512Z,1005.52
2018-03-14T08:38:08.427Z,1005.53
2018-03-14T08:39:08.362Z,1005.52
2018-03-14T08:40:08.266Z,1005.52
2018-03-14T08:41:08.192Z,1005.54
2018-03-14T08:42:08.099Z,1005.53
2018-03-14T08:43:08.028Z,1005.55
2018-03-14T08:44:07.941Z,1005.57
2018-03-14T08:45:07.863Z,1005.60
2018-03-14T08:46:07.779Z,1005.57
2018-03-14T08:47:07.688Z,1005.57
2018-03-14T08:48:07.617Z,1005.57
2018-03-14T08:49:07.531Z,1005.57
2018-03-14T08:50:07.451Z,1005.60
2018-03-14T08:51:07.365Z,1005.57
2018-03-14T08:52:07.288Z,1005.63
2018-03-14T08:53:07.205Z,1005.59
2018-03-14T08:54:07.134Z,1005.58
2018-03-14T08:55:07.039Z,1005.59
2018-03-14T08:56:06.954Z,1005.63
2018-03-14T08:57:06.876Z,1005.63
2018-03-14T08:58:06.793Z,1005.63
2018-03-14T08:59:06.715Z,1005.68
2018-03-14T09:00:06.630Z,1005.68
2018-03-14T09:01:06.563Z,1005.68
2018-03-14T09:02:06.465Z,1005.68
2018-03-14T09:03:06.394Z,1005.66
2018-03-14T09:04:06.309Z,1005.73
2018-03-14T09:05:06.244Z,1005.74
2018-03-14T09:06:06.140Z,1005.75
2018-03-14T09:07:06.065Z,1005.75
2018-03-14T09:08:05.978Z,1005.78
2018-03-14T09:09:05.903Z,1005.74
2018-03-14T09:10:05.822Z,1005.76
2018-03-14T09:11:05.734Z,1005.79
2018-03-14T09:12:05.653Z,1005.77
2018-03-14T09:13:05.571Z,1005.81
2018-03-14T09:14:05.493Z,1005.82
2018-03-14T09:15:05.403Z,1005.80
2018-03-14T09:16:05.328Z,1005.80
2018-03-14T09:17:05.244Z,1005.80
2018-03-14T09:18:05.170Z,1005.80
2018-03-14T09:19:05.091Z,1005.84
2018-03-14T09:20:05.008Z,1005.84
2018-03-14T09:21:04.924Z,1005.85
2018-03-14T09:22:04.843Z,1005.85
2018-03-14T09:23:04.753Z,1005.88
2018-03-14T09:24:04.681Z,1005.86
2018-03-14T09:25:04.593Z,1005.88
2018-03-14T09:26:04.520Z,1005.91
2018-03-14T09:27:04.433Z,1005.88
2018-03-14T09:28:04.357Z,1005.86
2018-03-14T09:29:04.269Z,1005.88
2018-03-14T09:30:04.193Z,1005.85
2018-03-14T09:31:04.109Z,1005.87
2018-03-14T09:32:04.034Z,1005.83
2018-03-14T09:33:03.945Z,1005.79
2018-03-14T09:34:03.872Z,1005.83
2018-03-14T09:35:03.781Z,1005.87
2018-03-14T09:36:03.708Z,1005.87
2018-03-14T09:37:03.630Z,1005.88
2018-03-14T09:38:03.545Z,1005.87
2018-03-14T09:39:03.458Z,1005.90
2018-03-14T09:40:03.395Z,1005.85
2018-03-14T09:41:03.306Z,1005.88
2018-03-14T09:42:03.221Z,1005.88
2018-03-14T09:43:03.144Z,1005.92
2018-03-14T09:44:03.056Z,1005.92
2018-03-14T09:45:02.994Z,1005.94
2018-03-14T09:46:02.944Z,1005.93
2018-03-14T09:47:02.825Z,1005.97
2018-03-14T09:48:02.732Z,1005.94
2018-03-14T09:49:02.658Z,1005.94
2018-03-14T09:50:02.576Z,1005.92
2018-03-14T09:51:02.499Z,1005.92
2018-03-14T09:52:02.428Z,1005.95
2018-03-14T09:53:02.332Z,1005.93
2018-03-14T09:54:02.258Z,1005.99
2018-03-14T09:55:02.170Z,1006.02
2018-03-14T09:56:02.100Z,1005.98
2018-03-14T09:57:02.008Z,1006.03
2018-03-14T09:58:01.957Z,1006.00
2018-03-14T09:59:01.871Z,1006.04
2018-03-14T10:00:01.772Z,1006.00
2018-03-14T10:01:01.697Z,1006.05
2018-03-14T10:02:01.622Z,1006.05
2018-03-14T10:03:01.559Z,1006.04
2018-03-14T10:04:01.448Z,1006.05
2018-03-14T10:05:01.380Z,1006.04
2018-03-14T10:06:01.299Z,1006.06
2018-03-14T10:07:01.211Z,1006.05
2018-03-14T10:08:01.134Z,1006.08
2018-03-14T10:09:01.048Z,1006.09
2018-03-14T10:10:00.973Z,1006.08
2018-03-14T10:11:00.886Z,1006.14
2018-03-14T10:12:00.810Z,1006.13
2018-03-14T10:13:00.739Z,1006.11
2018-03-14T10:14:00.648Z,1006.08
2018-03-14T10:15:00.577Z,1006.07
2018-03-14T10:16:00.486Z,1006.12
2018-03-14T10:17:00.414Z,1006.08
2018-03-14T10:18:00.331Z,1006.12
2018-03-14T10:19:00.249Z,1006.13
2018-03-14T10:20:00.173Z,1006.12
2018-03-14T10:21:00.090Z,1006.13
2018-03-14T10:22:00.014Z,1006.12
2018-03-14T10:22:59.926Z,1006.14
2018-03-14T10:23:59.849Z,1006.14
2018-03-14T10:24:59.763Z,1006.13
2018-03-14T10:25:59.699Z,1006.17
2018-03-14T10:26:59.599Z,1006.15
2018-03-14T10:27:59.525Z,1006.16
2018-03-14T10:28:59.438Z,1006.16
2018-03-14T10:29:59.375Z,1006.18
2018-03-14T10:30:59.288Z,1006.21
2018-03-14T10:31:59.208Z,1006.16
2018-03-14T10:32:59.125Z,1006.22
2018-03-14T10:33:59.041Z,1006.22
2018-03-14T10:34:58.963Z,1006.16
2018-03-14T10:35:58.875Z,1006.19
2018-03-14T10:36:58.805Z,1006.24
2018-03-14T10:37:58.714Z,1006.18
2018-03-14T10:38:58.641Z,1006.26
2018-03-14T10:39:58.566Z,1006.21
2018-03-14T10:40:58.481Z,1006.16
2018-03-14T10:41:58.404Z,1006.18
2018-03-14T10:42:58.316Z,1006.17
2018-03-14T10:43:58.238Z,1006.21
2018-03-14T10:44:58.162Z,1006.19
2018-03-14T10:45:58.076Z,1006.19
2018-03-14T10:46:58.002Z,1006.20
2018-03-14T10:47:57.914Z,1006.18
2018-03-14T10:48:57.841Z,1006.18
2018-03-14T10:49:57.751Z,1006.19
2018-03-14T10:50:57.677Z,1006.16
2018-03-14T10:51:57.601Z,1006.14
2018-03-14T10:52:57.518Z,1006.16
2018-03-14T10:53:57.427Z,1006.16
2018-03-14T10:54:57.359Z,1006.17
2018-03-14T10:55:57.266Z,1006.18
2018-03-14T10:56:57.201Z,1006.18
2018-03-14T10:57:57.115Z,1006.22
2018-03-14T10:58:57.030Z,1006.20
2018-03-14T10:59:56.957Z,1006.23
2018-03-14T11:00:56.865Z,1006.23
2018-03-14T11:01:56.805Z,1006.20
2018-03-14T11:02:56.703Z,1006.24
2018-03-14T11:03:56.632Z,1006.21
2018-03-14T11:04:56.540Z,1006.24
2018-03-14T11:05:56.469Z,1006.21
2018-03-14T11:06:56.379Z,1006.25
2018-03-14T11:07:56.304Z,1006.24
2018-03-14T11:08:56.232Z,1006.24
2018-03-14T11:09:56.143Z,1006.27
2018-03-14T11:10:56.120Z,1006.25
2018-03-14T11:11:55.979Z,1006.29
2018-03-14T11:12:55.904Z,1006.30
2018-03-14T11:13:55.816Z,1006.27
2018-03-14T11:14:55.741Z,1006.31
2018-03-14T11:15:55.654Z,1006.34
2018-03-14T11:16:55.583Z,1006.37
2018-03-14T11:17:55.496Z,1006.30
2018-03-14T11:18:55.417Z,1006.36
2018-03-14T11:19:55.332Z,1006.35
2018-03-14T11:20:55.256Z,1006.34
2018-03-14T11:21:55.168Z,1006.34
2018-03-14T11:22:55.091Z,1006.39
2018-03-14T11:23:55.007Z,1006.37
2018-03-14T11:24:54.934Z,1006.32
2018-03-14T11:25:54.844Z,1006.35
2018-03-14T11:26:54.771Z,1006.34
2018-03-14T11:27:54.680Z,1006.38
2018-03-14T11:28:54.606Z,1006.35
2018-03-14T11:29:54.519Z,1006.35
2018-03-14T11:30:54.447Z,1006.32
2018-03-14T11:31:54.357Z,1006.34
2018-03-14T11:32:54.284Z,1006.32
2018-03-14T11:33:54.197Z,1006.37
2018-03-14T11:34:54.118Z,1006.40
2018-03-14T11:35:54.038Z,1006.39
2018-03-14T11:36:53.961Z,1006.39
2018-03-14T11:37:53.871Z,1006.35
2018-03-14T11:38:53.794Z,1006.40
2018-03-14T11:39:53.712Z,1006.40
2018-03-14T11:40:53.632Z,1006.42
2018-03-14T11:41:53.548Z,1006.48
2018-03-14T11:42:53.483Z,1006.42
2018-03-14T11:43:53.383Z,1006.42
2018-03-14T11:44:53.311Z,1006.43
2018-03-14T11:45:53.220Z,1006.46
2018-03-14T11:46:53.148Z,1006.45
2018-03-14T11:47:53.057Z,1006.47
2018-03-14T11:48:52.986Z,1006.46
2018-03-14T11:49:52.895Z,1006.46
2018-03-14T11:50:52.820Z,1006.48
2018-03-14T11:51:52.737Z,1006.50
2018-03-14T11:52:52.658Z,1006.52
2018-03-14T11:53:52.576Z,1006.48
2018-03-14T11:54:52.488Z,1006.52
2018-03-14T11:55:52.410Z,1006.49
2018-03-14T11:56:52.323Z,1006.51
2018-03-14T11:57:52.249Z,1006.55
2018-03-14T11:58:52.173Z,1006.53
2018-03-14T11:59:52.084Z,1006.54
2018-03-14T12:00:52.010Z,1006.55
2018-03-14T12:01:51.921Z,1006.57
2018-03-14T12:02:51.838Z,1006.56
2018-03-14T12:03:51.766Z,1006.55
2018-03-14T12:04:51.673Z,1006.52